Phoenicia, New York
Current Conditions -  °F | °C
As of 7:15 AM on Sunday 25 Jan 2015 (Local Time) from KMSV Reporting Station
Broken Clouds Broken Clouds  
Wind Chill: 18°   Ceiling: 4100
Heat Index: 30°   Visibility: 10mi
Dew Point: 21°   Wind: 17mph
Humidity: 69%   Direction: 290°WNW
Pressure: 29.56"   Gusts: 28mph
Location:  42.08°N, 74.31°W
Report Text: KMSV 251215Z AUTO 29015G24KT 10SM SCT030 BKN041 BKN050 M01/M06 A2956 RMK AO1
Loading
Personal Weather Stations






























Interactive Weather Map New forecast layout! Learn more

10-Day Weather Forecast

Advertisements
Track Severe Weather on mobile